Augusta, Australia
Current Conditions -  °F | °C
As of 5:00 PM on Saturday 25 Oct 2014 (Local Time) from YABA Reporting Station
Scattered Clouds Scattered Clouds  
Wind Chill: 64°   Ceiling: Unl
Heat Index: 64°   Visibility: 6mi
Dew Point: 54°   Wind: 15mph
Humidity: 68%   Direction: 250°WSW
Pressure: 29.91"   Gusts: NA
Location:  34.32°S, 115.16°E
Report Text: YABA 250900Z AUTO 25013KT 9999 // SCT031 18/12 Q1013
Loading
Personal Weather Stations






























Interactive Weather Map
Tropical Storm Tracking
New forecast layout! Learn more

10-Day Weather Forecast

Advertisements
Track Severe Weather on mobile